createdAt,value
2023-01-17T00:00:42.569Z,10.80
2023-01-17T00:04:37.640Z,10.70
2023-01-17T00:08:45.258Z,9.70
2023-01-17T00:12:31.734Z,8.90
2023-01-17T00:16:15.606Z,9.10
2023-01-17T00:20:19.251Z,7.90
2023-01-17T00:24:03.833Z,8.60
2023-01-17T00:27:31.875Z,9.60
2023-01-17T00:31:08.994Z,9.00
2023-01-17T00:34:44.982Z,9.00
2023-01-17T00:38:41.661Z,8.50
2023-01-17T00:42:07.299Z,6.40
2023-01-17T00:46:05.930Z,7.90
2023-01-17T00:49:51.581Z,7.80
2023-01-17T00:53:53.323Z,9.60
2023-01-17T00:57:54.788Z,9.30
2023-01-17T01:01:36.879Z,8.60
2023-01-17T01:05:22.341Z,6.10
2023-01-17T01:09:07.036Z,6.90
2023-01-17T01:12:50.395Z,8.40
2023-01-17T01:16:36.231Z,8.10
2023-01-17T01:20:38.910Z,7.60
2023-01-17T01:24:40.121Z,7.90
2023-01-17T01:28:41.649Z,7.70
2023-01-17T01:32:25.213Z,7.90
2023-01-17T01:36:11.174Z,10.00
2023-01-17T01:39:37.790Z,8.60
2023-01-17T01:43:16.424Z,8.20
2023-01-17T01:46:52.660Z,5.80
2023-01-17T01:50:50.895Z,6.80
2023-01-17T01:54:38.790Z,6.60
2023-01-17T01:58:21.249Z,9.60
2023-01-17T02:02:06.786Z,7.50
2023-01-17T02:05:32.302Z,6.60
2023-01-17T02:09:28.762Z,7.50
2023-01-17T02:12:53.299Z,8.40
2023-01-17T02:16:39.210Z,8.60
2023-01-17T02:20:32.685Z,9.00
2023-01-17T02:24:46.153Z,8.80
2023-01-17T02:28:46.546Z,7.60
2023-01-17T02:32:55.133Z,8.50
2023-01-17T02:36:45.593Z,8.00
2023-01-17T02:40:28.085Z,6.80
2023-01-17T02:43:54.363Z,7.70
2023-01-17T02:47:49.807Z,7.40
2023-01-17T02:51:43.674Z,7.00
2023-01-17T02:55:39.482Z,7.80
2023-01-17T02:59:09.036Z,8.90
2023-01-17T03:03:18.391Z,9.80
2023-01-17T03:07:07.446Z,9.60
2023-01-17T03:10:51.754Z,9.20
2023-01-17T03:14:16.478Z,7.80
2023-01-17T03:18:15.244Z,8.90
2023-01-17T03:21:40.610Z,7.80
2023-01-17T03:25:37.682Z,7.80
2023-01-17T03:29:03.499Z,5.90
2023-01-17T03:33:02.370Z,7.00
2023-01-17T03:36:26.622Z,4.70
2023-01-17T03:40:04.807Z,5.20
2023-01-17T03:44:03.895Z,5.80
2023-01-17T03:47:46.647Z,5.80
2023-01-17T03:51:10.447Z,5.30
2023-01-17T03:55:07.278Z,4.30
2023-01-17T03:58:31.404Z,4.10
2023-01-17T04:02:28.402Z,4.90
2023-01-17T04:05:52.395Z,3.90
2023-01-17T04:09:52.002Z,4.40
2023-01-17T04:13:16.785Z,4.10
2023-01-17T04:17:14.107Z,3.00
2023-01-17T04:20:56.516Z,2.60
2023-01-17T04:24:21.862Z,2.70
2023-01-17T04:27:59.642Z,2.70
2023-01-17T04:31:35.765Z,3.60
2023-01-17T04:35:34.689Z,3.10
2023-01-17T04:38:58.731Z,4.10
2023-01-17T04:42:36.376Z,3.00
2023-01-17T04:46:13.570Z,2.70
2023-01-17T04:50:10.971Z,4.30
2023-01-17T04:53:53.148Z,4.90
2023-01-17T04:57:17.926Z,4.80
2023-01-17T05:00:56.139Z,5.00
2023-01-17T05:04:35.678Z,4.20
2023-01-17T05:08:10.091Z,4.60
2023-01-17T05:11:47.873Z,4.70
2023-01-17T05:15:30.749Z,6.30
2023-01-17T05:19:02.922Z,6.50
2023-01-17T05:22:42.760Z,5.40
2023-01-17T05:26:18.129Z,7.50
2023-01-17T05:30:15.332Z,8.40
2023-01-17T05:33:41.583Z,10.40
2023-01-17T05:37:36.216Z,7.20
2023-01-17T05:41:04.865Z,11.40
2023-01-17T05:44:39.235Z,17.00
2023-01-17T05:48:34.711Z,9.00
2023-01-17T05:52:19.948Z,10.60
2023-01-17T05:55:45.433Z,14.70
2023-01-17T05:59:35.969Z,13.90
2023-01-17T06:03:01.499Z,9.40
2023-01-17T06:06:57.586Z,10.10
2023-01-17T06:10:22.777Z,8.00
2023-01-17T06:14:02.051Z,8.70
2023-01-17T06:17:37.515Z,9.30
2023-01-17T06:21:15.778Z,13.10
2023-01-17T06:25:11.218Z,13.00
2023-01-17T06:28:54.907Z,12.30
2023-01-17T06:32:38.289Z,8.30
2023-01-17T06:36:01.816Z,9.00
2023-01-17T06:39:43.307Z,8.90
2023-01-17T06:43:18.319Z,11.90
2023-01-17T06:46:55.295Z,15.50
2023-01-17T06:50:51.323Z,15.20
2023-01-17T06:54:33.901Z,19.60
2023-01-17T06:58:16.923Z,23.30
2023-01-17T07:01:41.514Z,16.80
2023-01-17T07:05:19.479Z,14.90
2023-01-17T07:08:59.065Z,28.10
2023-01-17T07:12:33.609Z,37.50
2023-01-17T07:16:12.223Z,33.30
2023-01-17T07:20:09.885Z,21.60
2023-01-17T07:23:54.307Z,18.20
2023-01-17T07:27:18.991Z,14.40
2023-01-17T07:30:57.409Z,13.40
2023-01-17T07:34:36.418Z,12.60
2023-01-17T07:38:35.798Z,13.00
2023-01-17T07:42:23.971Z,11.40
2023-01-17T07:45:50.892Z,10.90
2023-01-17T07:49:28.148Z,11.50
2023-01-17T07:53:06.947Z,14.70
2023-01-17T07:56:45.915Z,15.00
2023-01-17T08:00:43.297Z,15.20
2023-01-17T08:04:33.992Z,16.00
2023-01-17T08:07:58.158Z,17.80
2023-01-17T08:11:54.343Z,17.50
2023-01-17T08:15:21.367Z,17.10
2023-01-17T08:19:14.497Z,19.80
2023-01-17T08:22:41.606Z,18.10
2023-01-17T08:26:22.141Z,12.70
2023-01-17T08:29:54.124Z,13.80
2023-01-17T08:33:33.798Z,11.90
2023-01-17T08:37:12.907Z,10.50
2023-01-17T08:41:05.955Z,14.40
2023-01-17T08:44:29.910Z,12.50
2023-01-17T08:48:11.041Z,17.20
2023-01-17T08:51:46.879Z,12.60
2023-01-17T08:55:25.939Z,17.50
2023-01-17T08:59:22.051Z,14.10
2023-01-17T09:03:10.006Z,12.90
2023-01-17T09:06:36.931Z,12.30
2023-01-17T09:10:33.104Z,12.20
2023-01-17T09:14:17.072Z,18.20
2023-01-17T09:17:41.590Z,16.00
2023-01-17T09:21:37.359Z,12.30
2023-01-17T09:25:01.946Z,12.40
2023-01-17T09:28:41.136Z,15.30
2023-01-17T09:32:37.833Z,11.80
2023-01-17T09:36:22.244Z,10.10
2023-01-17T09:39:50.829Z,10.20
2023-01-17T09:43:51.021Z,10.20
2023-01-17T09:47:31.771Z,11.70
2023-01-17T09:51:24.213Z,19.30
2023-01-17T09:54:53.499Z,17.90
2023-01-17T09:59:32.754Z,18.20
2023-01-17T10:03:25.035Z,16.20
2023-01-17T10:07:01.207Z,11.20
2023-01-17T10:10:37.317Z,6.40
2023-01-17T10:14:23.082Z,6.70
2023-01-17T10:18:06.459Z,5.80
2023-01-17T10:22:04.275Z,7.90
2023-01-17T10:25:59.884Z,7.20
2023-01-17T10:29:32.824Z,6.30
2023-01-17T10:33:17.915Z,5.80
2023-01-17T10:36:47.508Z,7.40
2023-01-17T10:40:44.061Z,6.60
2023-01-17T10:44:27.282Z,6.50
2023-01-17T10:48:06.060Z,5.60
2023-01-17T10:51:59.605Z,7.30
2023-01-17T10:55:54.174Z,5.70
2023-01-17T10:59:37.557Z,7.40
2023-01-17T11:03:02.782Z,5.50
2023-01-17T11:06:57.540Z,7.60
2023-01-17T11:10:54.190Z,7.70
2023-01-17T11:14:26.861Z,5.00
2023-01-17T11:18:20.252Z,5.00
2023-01-17T11:22:05.931Z,5.90
2023-01-17T11:25:58.172Z,4.70
2023-01-17T11:29:28.616Z,4.50
2023-01-17T11:33:06.077Z,3.90
2023-01-17T11:36:39.644Z,3.90
2023-01-17T11:40:42.670Z,4.20
2023-01-17T11:44:31.263Z,4.50
2023-01-17T11:48:17.953Z,5.20
2023-01-17T11:51:46.714Z,5.00
2023-01-17T11:55:40.684Z,4.40
2023-01-17T11:59:31.366Z,3.20
2023-01-17T12:03:45.641Z,3.20
2023-01-17T12:07:34.581Z,4.10
2023-01-17T12:11:23.922Z,4.20
2023-01-17T12:15:01.468Z,3.00
2023-01-17T12:18:42.969Z,3.40
2023-01-17T12:22:17.181Z,3.70
2023-01-17T12:26:07.683Z,3.00
2023-01-17T12:29:46.462Z,3.10
2023-01-17T12:33:22.011Z,3.30
2023-01-17T12:37:02.535Z,2.20
2023-01-17T12:41:05.211Z,2.20
2023-01-17T12:45:13.370Z,2.30
2023-01-17T12:49:23.385Z,3.90
2023-01-17T12:52:50.025Z,3.90
2023-01-17T12:56:39.348Z,2.70
2023-01-17T13:00:07.373Z,2.40
2023-01-17T13:04:12.653Z,2.40
2023-01-17T13:07:41.106Z,4.30
2023-01-17T13:11:45.518Z,1.60
2023-01-17T13:15:23.191Z,3.20
2023-01-17T13:18:51.584Z,3.10
2023-01-17T13:22:49.007Z,1.90
2023-01-17T13:26:53.590Z,1.20
2023-01-17T13:30:46.274Z,1.20
2023-01-17T13:34:20.119Z,4.80
2023-01-17T13:38:15.130Z,3.30
2023-01-17T13:41:54.880Z,6.20
2023-01-17T13:45:39.050Z,15.90
2023-01-17T13:49:38.069Z,5.70
2023-01-17T13:53:35.810Z,6.90
2023-01-17T13:57:40.029Z,10.40
2023-01-17T14:01:11.483Z,6.30
2023-01-17T14:05:11.370Z,8.00
2023-01-17T14:08:38.928Z,8.00
2023-01-17T14:12:18.029Z,16.30
2023-01-17T14:15:52.865Z,19.10
2023-01-17T14:19:36.381Z,16.50
2023-01-17T14:23:31.635Z,12.30
2023-01-17T14:26:59.802Z,9.10
2023-01-17T14:30:38.104Z,9.30
2023-01-17T14:34:13.902Z,12.50
2023-01-17T14:37:54.338Z,19.30
2023-01-17T14:41:29.897Z,15.20
2023-01-17T14:45:09.198Z,19.70
2023-01-17T14:48:44.467Z,14.50
2023-01-17T14:52:23.607Z,20.90
2023-01-17T14:56:17.708Z,26.90
2023-01-17T14:59:44.022Z,21.40
2023-01-17T15:03:22.676Z,7.50
2023-01-17T15:07:02.067Z,11.10
2023-01-17T15:10:45.616Z,13.70
2023-01-17T15:14:36.844Z,15.60
2023-01-17T15:18:25.165Z,22.00
2023-01-17T15:22:08.298Z,20.30
2023-01-17T15:25:52.959Z,18.20
2023-01-17T15:29:37.530Z,20.60
2023-01-17T15:33:21.305Z,30.50
2023-01-17T15:36:50.486Z,32.90
2023-01-17T15:40:27.228Z,37.70
2023-01-17T15:44:02.549Z,20.80
2023-01-17T15:48:00.819Z,19.10
2023-01-17T15:52:00.940Z,18.10
2023-01-17T15:55:42.759Z,17.10
2023-01-17T15:59:40.947Z,13.70
2023-01-17T16:03:26.432Z,10.60
2023-01-17T16:07:21.619Z,8.00
2023-01-17T16:10:45.707Z,6.70
2023-01-17T16:15:02.543Z,6.70
2023-01-17T16:18:27.649Z,8.10
2023-01-17T16:22:26.435Z,8.60
2023-01-17T16:25:51.014Z,9.90
2023-01-17T16:29:29.321Z,7.90
2023-01-17T16:33:09.839Z,7.40
2023-01-17T16:36:46.409Z,7.60
2023-01-17T16:40:27.188Z,6.70
2023-01-17T16:44:06.083Z,8.80
2023-01-17T16:47:57.098Z,9.50
2023-01-17T16:51:21.445Z,10.90
2023-01-17T16:55:02.604Z,18.90
2023-01-17T16:58:58.042Z,17.10
2023-01-17T17:02:23.155Z,11.60
2023-01-17T17:06:04.446Z,13.00
2023-01-17T17:09:39.179Z,19.10
2023-01-17T17:13:38.761Z,24.80
2023-01-17T17:17:04.615Z,28.00
2023-01-17T17:20:41.106Z,29.50
2023-01-17T17:24:38.433Z,25.10
2023-01-17T17:28:06.104Z,20.50
2023-01-17T17:31:58.675Z,27.70
2023-01-17T17:35:22.602Z,25.20
2023-01-17T17:39:03.559Z,26.30
2023-01-17T17:42:38.402Z,24.20
2023-01-17T17:46:20.365Z,26.80
2023-01-17T17:49:53.981Z,25.30
2023-01-17T17:53:53.077Z,26.40
2023-01-17T17:57:16.772Z,22.10
2023-01-17T18:00:55.011Z,20.70
2023-01-17T18:04:34.036Z,19.60
2023-01-17T18:08:10.885Z,17.60
2023-01-17T18:11:50.066Z,25.40
2023-01-17T18:15:45.896Z,27.80
2023-01-17T18:19:30.756Z,24.40
2023-01-17T18:23:14.934Z,16.20
2023-01-17T18:26:51.896Z,15.10
2023-01-17T18:30:42.132Z,13.40
2023-01-17T18:34:09.189Z,14.80
2023-01-17T18:37:43.984Z,15.40
2023-01-17T18:41:26.893Z,19.00
2023-01-17T18:44:59.627Z,17.90
2023-01-17T18:48:39.066Z,17.10
2023-01-17T18:52:15.047Z,15.60
2023-01-17T18:56:14.591Z,18.10
2023-01-17T18:59:38.194Z,17.10
2023-01-17T19:03:35.956Z,11.60
2023-01-17T19:07:06.639Z,12.70
2023-01-17T19:10:56.171Z,11.60
2023-01-17T19:14:19.645Z,12.40
2023-01-17T19:18:16.596Z,13.80
2023-01-17T19:21:42.221Z,14.00
2023-01-17T19:25:39.933Z,13.00
2023-01-17T19:29:07.249Z,9.10
2023-01-17T19:32:43.427Z,9.10
2023-01-17T19:36:25.238Z,12.70
2023-01-17T19:39:59.883Z,10.20
2023-01-17T19:43:37.199Z,10.90
2023-01-17T19:47:14.365Z,11.40
2023-01-17T19:50:51.879Z,21.10
2023-01-17T19:54:47.938Z,15.40
2023-01-17T19:58:18.140Z,12.10
2023-01-17T20:01:52.542Z,14.20
2023-01-17T20:05:56.928Z,14.40
2023-01-17T20:09:41.929Z,14.00
2023-01-17T20:13:08.740Z,14.70
2023-01-17T20:16:47.730Z,14.90
2023-01-17T20:20:24.050Z,12.70
2023-01-17T20:24:01.392Z,12.00
2023-01-17T20:27:38.324Z,9.30
2023-01-17T20:31:39.878Z,8.70
2023-01-17T20:35:04.004Z,7.90
2023-01-17T20:38:48.772Z,8.10
2023-01-17T20:42:20.635Z,5.40
2023-01-17T20:45:58.683Z,7.30
2023-01-17T20:49:36.409Z,10.70
2023-01-17T20:53:33.074Z,11.40
2023-01-17T20:57:17.593Z,15.90
2023-01-17T21:01:01.711Z,14.40
2023-01-17T21:04:44.709Z,15.30
2023-01-17T21:08:09.510Z,16.80
2023-01-17T21:12:05.195Z,14.40
2023-01-17T21:15:33.976Z,11.50
2023-01-17T21:19:15.956Z,13.30
2023-01-17T21:23:08.952Z,13.00
2023-01-17T21:26:34.776Z,11.20
2023-01-17T21:30:13.181Z,11.10
2023-01-17T21:34:10.992Z,14.30
2023-01-17T21:37:35.978Z,21.30
2023-01-17T21:41:13.287Z,18.10
2023-01-17T21:44:50.500Z,10.20
2023-01-17T21:48:27.765Z,8.00
2023-01-17T21:52:05.244Z,6.70
2023-01-17T21:56:29.381Z,26.50
2023-01-17T21:59:54.947Z,11.10
2023-01-17T22:03:34.829Z,10.30
2023-01-17T22:07:10.387Z,9.00
2023-01-17T22:11:09.912Z,11.60
2023-01-17T22:14:52.959Z,11.20
2023-01-17T22:18:43.405Z,11.20
2023-01-17T22:22:26.631Z,12.30
2023-01-17T22:26:12.197Z,10.00
2023-01-17T22:29:54.660Z,18.60
2023-01-17T22:33:17.870Z,11.80
2023-01-17T22:36:55.654Z,12.30
2023-01-17T22:40:52.223Z,15.10
2023-01-17T22:44:17.903Z,14.50
2023-01-17T22:47:54.917Z,14.30
2023-01-17T22:51:51.203Z,16.20
2023-01-17T22:55:17.189Z,16.50
2023-01-17T22:59:12.947Z,16.50
2023-01-17T23:02:57.507Z,16.40
2023-01-17T23:06:30.382Z,13.60
2023-01-17T23:10:01.483Z,9.50
2023-01-17T23:13:39.417Z,12.80
2023-01-17T23:17:54.731Z,10.70
2023-01-17T23:21:56.415Z,12.80
2023-01-17T23:25:22.439Z,13.40
2023-01-17T23:28:59.124Z,15.00
2023-01-17T23:32:39.583Z,18.90
2023-01-17T23:36:13.135Z,15.00
2023-01-17T23:39:50.882Z,12.70
2023-01-17T23:43:52.745Z,27.80
2023-01-17T23:47:16.984Z,12.70
2023-01-17T23:51:08.341Z,8.80
2023-01-17T23:54:52.558Z,14.50
2023-01-17T23:58:37.552Z,13.30
